Time;durP1;ratioP1;P1;durP2;ratioP2;P2;SDS_P1;SDS_P2;PMS_P1;PMS_P2;Temp;Humidity;BMP_temperature;BMP_pressure;BME280_temperature;BME280_humidity;BME280_pressure;Samples;Min_cycle;Max_cycle;Signal;HPM_P1;HPM_P2
2023/10/16 00:01:39;;;;;;;10.10;5.25;;;;;;;4.97;100.00;102281.88;4968363;28;20039;-77
2023/10/16 00:04:06;;;;;;;10.95;6.00;;;;;;;4.97;100.00;102282.72;4968307;28;20066;-76
2023/10/16 00:06:34;;;;;;;7.40;4.72;;;;;;;4.98;100.00;102289.72;4966812;28;20121;-77
2023/10/16 00:09:14;;;;;;;12.20;6.00;;;;;;;4.97;100.00;102282.72;4967794;28;20039;-77
2023/10/16 00:11:42;;;;;;;10.88;5.70;;;;;;;4.98;100.00;102281.88;4966642;28;20050;-77
2023/10/16 00:14:25;;;;;;;8.98;5.60;;;;;;;4.98;100.00;102276.66;4967274;28;20435;-76
2023/10/16 00:16:53;;;;;;;7.70;5.55;;;;;;;5.00;100.00;102279.28;4967505;28;20383;-77
2023/10/16 00:19:20;;;;;;;9.15;5.63;;;;;;;5.00;100.00;102275.78;4967922;28;20078;-76
2023/10/16 00:21:47;;;;;;;8.27;5.75;;;;;;;5.02;100.00;102284.53;4967243;28;20043;-77
2023/10/16 00:24:15;;;;;;;9.98;6.25;;;;;;;5.00;100.00;102274.03;4968324;28;20077;-80
2023/10/16 00:26:49;;;;;;;12.95;6.38;;;;;;;5.00;100.00;102268.81;4967050;28;20042;-79
2023/10/16 00:29:24;;;;;;;10.75;6.10;;;;;;;4.98;100.00;102273.16;4971488;28;20723;-78
2023/10/16 00:31:52;;;;;;;8.55;6.20;;;;;;;4.94;100.00;102277.44;4967506;28;20100;-79
2023/10/16 00:34:21;;;;;;;10.88;5.82;;;;;;;4.89;100.00;102273.00;4968041;28;20451;-79
2023/10/16 00:36:54;;;;;;;11.73;6.05;;;;;;;4.87;100.00;102278.22;4965467;28;20046;-79
2023/10/16 00:39:26;;;;;;;10.77;6.13;;;;;;;4.84;100.00;102272.91;4967220;28;20051;-79
2023/10/16 00:41:53;;;;;;;9.75;6.50;;;;;;;4.82;100.00;102283.34;4966195;28;20566;-78
2023/10/16 00:44:22;;;;;;;9.05;5.90;;;;;;;4.82;100.00;102279.88;4964898;28;20070;-79
2023/10/16 00:46:53;;;;;;;8.95;6.78;;;;;;;4.80;100.00;102285.06;4966686;28;20041;-76
2023/10/16 00:49:23;;;;;;;10.75;6.70;;;;;;;4.79;100.00;102285.91;4967705;28;20043;-76
2023/10/16 00:51:50;;;;;;;9.80;6.32;;;;;;;4.80;100.00;102278.97;4967295;28;20702;-76
2023/10/16 00:54:29;;;;;;;10.50;6.70;;;;;;;4.77;100.00;102271.06;4967534;28;20046;-76
2023/10/16 00:57:00;;;;;;;11.55;7.30;;;;;;;4.76;100.00;102280.66;4958208;28;20050;-78
2023/10/16 00:59:28;;;;;;;10.82;7.15;;;;;;;4.79;100.00;102283.28;4984571;28;20047;-77
2023/10/16 01:02:09;;;;;;;9.35;7.20;;;;;;;4.79;100.00;102283.28;4982434;28;20612;-77
2023/10/16 01:04:37;;;;;;;10.45;6.70;;;;;;;4.80;100.00;102276.34;4966411;28;20074;-76
2023/10/16 01:07:08;;;;;;;12.30;7.28;;;;;;;4.79;100.00;102275.47;4964977;28;20034;-76
2023/10/16 01:09:36;;;;;;;11.27;7.10;;;;;;;4.79;100.00;102264.13;4966038;28;20047;-76
2023/10/16 01:12:06;;;;;;;8.73;7.32;;;;;;;4.80;100.00;102268.50;4964354;28;20043;-77
2023/10/16 01:14:38;;;;;;;9.20;7.13;;;;;;;4.81;100.00;102265.06;4965741;28;20073;-78
2023/10/16 01:17:08;;;;;;;9.00;6.65;;;;;;;4.81;100.00;102265.06;4964575;28;20042;-79
2023/10/16 01:19:37;;;;;;;12.48;7.22;;;;;;;4.80;100.00;102263.28;4952154;28;20046;-79
2023/10/16 01:22:04;;;;;;;9.60;7.53;;;;;;;4.81;100.00;102263.31;4966574;28;20039;-79
2023/10/16 01:24:31;;;;;;;13.98;7.53;;;;;;;4.81;100.00;102259.81;4965606;28;20043;-80
2023/10/16 01:27:06;;;;;;;13.73;7.63;;;;;;;4.82;100.00;102258.97;4966263;28;20050;-80
2023/10/16 01:29:34;;;;;;;10.65;7.20;;;;;;;4.81;100.00;102258.06;4965524;28;20126;-80
2023/10/16 01:32:02;;;;;;;12.95;7.63;;;;;;;4.79;100.00;102251.94;4966774;28;20046;-80
2023/10/16 01:34:32;;;;;;;9.80;7.57;;;;;;;4.79;100.00;102251.94;4966845;28;20054;-80
2023/10/16 01:37:08;;;;;;;11.93;7.70;;;;;;;4.77;100.00;102242.31;4966107;28;20050;-80
2023/10/16 01:39:48;;;;;;;13.57;7.85;;;;;;;4.73;100.00;102236.16;4965524;28;20062;-83
2023/10/16 01:42:18;;;;;;;12.15;7.25;;;;;;;4.73;100.00;102238.78;4967249;28;20137;-78
2023/10/16 01:44:48;;;;;;;12.35;7.07;;;;;;;4.72;100.00;102238.78;4969851;28;21910;-80
2023/10/16 01:47:15;;;;;;;12.40;7.82;;;;;;;4.69;100.00;102233.50;4971508;28;20051;-80
2023/10/16 01:49:45;;;;;;;12.65;6.95;;;;;;;4.63;100.00;102229.91;4970511;28;20058;-77
2023/10/16 01:52:12;;;;;;;9.68;7.18;;;;;;;4.62;100.00;102227.28;4969180;28;20831;-78
2023/10/16 01:54:45;;;;;;;8.05;6.57;;;;;;;4.59;100.00;102229.81;4969583;28;20476;-79
2023/10/16 01:57:14;;;;;;;;;;;;;;;4.52;100.00;102223.66;4970790;28;20113;-76
2023/10/16 01:59:49;;;;;;;11.27;6.97;;;;;;;4.47;100.00;102223.56;4967512;28;19993;-77
2023/10/16 02:02:17;;;;;;;;;;;;;;;4.41;100.00;102227.81;4969727;28;20419;-78
2023/10/16 02:04:45;;;;;;;9.68;7.15;;;;;;;4.39;100.00;102227.75;4969085;28;19926;-77
2023/10/16 02:07:12;;;;;;;9.73;7.47;;;;;;;4.39;100.00;102229.50;4970044;28;20166;-77
2023/10/16 02:09:40;;;;;;;12.27;7.88;;;;;;;4.39;100.00;102232.97;4962077;28;20046;-78
2023/10/16 02:12:14;;;;;;;13.25;8.30;;;;;;;4.38;100.00;102233.81;4968597;28;20056;-78
2023/10/16 02:14:44;;;;;;;11.73;8.43;;;;;;;4.42;100.00;102240.00;4969668;28;20495;-77
2023/10/16 02:17:19;;;;;;;11.98;8.18;;;;;;;4.41;100.00;102239.13;4968447;28;20049;-73
2023/10/16 02:19:48;;;;;;;11.77;7.80;;;;;;;4.40;100.00;102239.97;4969142;28;20049;-73
2023/10/16 02:22:22;;;;;;;10.75;7.72;;;;;;;4.38;100.00;102236.44;4970401;28;20043;-73
2023/10/16 02:24:50;;;;;;;10.57;7.47;;;;;;;4.36;100.00;102235.56;4968840;28;20047;-73
2023/10/16 02:27:21;;;;;;;10.73;7.60;;;;;;;4.32;100.00;102231.97;4970188;28;20141;-76
2023/10/16 02:29:52;;;;;;;9.30;7.13;;;;;;;4.28;100.00;102231.91;4968131;28;20051;-80
2023/10/16 02:32:23;;;;;;;9.90;7.55;;;;;;;4.27;100.00;102225.81;4970688;28;20487;-80
2023/10/16 02:34:50;;;;;;;13.77;7.82;;;;;;;4.26;100.00;102229.28;4970483;28;20043;-81
2023/10/16 02:37:20;;;;;;;9.57;7.55;;;;;;;4.27;100.00;102224.94;4969252;28;20050;-81
2023/10/16 02:39:53;;;;;;;9.98;7.70;;;;;;;4.25;100.00;102222.28;4970288;28;20050;-81
2023/10/16 02:42:25;;;;;;;11.63;7.47;;;;;;;4.26;100.00;102220.56;4975918;28;20050;-80
2023/10/16 02:44:54;;;;;;;11.13;7.68;;;;;;;4.27;100.00;102231.03;4954348;28;20440;-81
2023/10/16 02:47:27;;;;;;;12.55;8.32;;;;;;;4.28;100.00;102231.91;4969487;28;20043;-79
2023/10/16 02:49:56;;;;;;;14.00;7.40;;;;;;;4.26;100.00;102220.56;4970040;28;20047;-83
2023/10/16 02:52:24;;;;;;;11.50;7.68;;;;;;;4.26;100.00;102226.66;4969521;28;20074;-82
2023/10/16 02:54:56;;;;;;;8.77;7.07;;;;;;;4.27;100.00;102224.94;4967935;28;20137;-82
2023/10/16 02:57:27;;;;;;;12.55;7.93;;;;;;;4.28;100.00;102232.81;4967059;28;20135;-82
2023/10/16 02:59:56;;;;;;;11.80;7.68;;;;;;;4.28;100.00;102231.91;4968133;28;20043;-82
2023/10/16 03:02:27;;;;;;;9.65;7.68;;;;;;;4.29;100.00;102224.13;4969770;28;20722;-82
2023/10/16 03:05:05;;;;;;;13.18;8.23;;;;;;;4.34;100.00;102234.66;4968627;28;20459;-78
2023/10/16 03:07:34;;;;;;;12.15;7.85;;;;;;;4.39;100.00;102229.50;4958987;28;20520;-80
2023/10/16 03:10:02;;;;;;;15.32;7.70;;;;;;;4.42;100.00;102222.59;4968591;28;20043;-76
2023/10/16 03:12:29;;;;;;;11.57;7.75;;;;;;;4.49;100.00;102229.69;4969516;28;20053;-77
2023/10/16 03:14:58;;;;;;;13.32;7.78;;;;;;;4.54;100.00;102219.31;4969081;28;20114;-77
2023/10/16 03:17:25;;;;;;;14.35;8.10;;;;;;;4.58;100.00;102223.75;4968856;28;20043;-77
2023/10/16 03:19:55;;;;;;;12.60;8.25;;;;;;;4.65;100.00;102224.72;4968198;28;20057;-77
2023/10/16 03:22:22;;;;;;;11.48;7.97;;;;;;;4.68;100.00;102223.88;4966520;28;20077;-77
2023/10/16 03:24:51;;;;;;;12.85;7.47;;;;;;;4.72;100.00;102223.09;4968268;28;20058;-76
2023/10/16 03:27:31;;;;;;;12.00;7.75;;;;;;;4.75;100.00;102221.41;4968653;28;20078;-78
2023/10/16 03:29:58;;;;;;;12.52;7.70;;;;;;;4.77;100.00;102208.34;4968979;28;20130;-78
2023/10/16 03:32:33;;;;;;;12.38;7.97;;;;;;;4.79;100.00;102223.19;4969280;28;20581;-77
2023/10/16 03:35:05;;;;;;;15.02;7.65;;;;;;;4.81;100.00;102215.41;4967037;28;20047;-78
2023/10/16 03:37:35;;;;;;;13.50;7.43;;;;;;;4.87;100.00;102212.00;4973887;28;20134;-78
2023/10/16 03:40:11;;;;;;;11.35;7.80;;;;;;;4.91;100.00;102213.78;4968381;28;20591;-77
2023/10/16 03:42:43;;;;;;;13.00;7.75;;;;;;;5.00;100.00;102218.28;4969897;28;20078;-78
2023/10/16 03:45:13;;;;;;;12.38;7.80;;;;;;;5.04;100.00;102218.34;4969015;28;20437;-77
2023/10/16 03:47:41;;;;;;;11.68;7.68;;;;;;;5.10;100.00;102222.81;4967640;28;20122;-77
2023/10/16 03:50:10;;;;;;;10.27;7.07;;;;;;;5.12;100.00;102218.47;4969485;28;20046;-77
2023/10/16 03:52:38;;;;;;;12.27;7.30;;;;;;;5.13;100.00;102223.72;4966913;28;20075;-77
2023/10/16 03:57:52;;;;;;;11.75;7.22;;;;;;;5.11;100.00;102217.59;4959062;28;20047;-79
2023/10/16 04:00:26;;;;;;;12.13;8.55;;;;;;;5.08;100.00;102227.13;4968345;28;20042;-79
2023/10/16 04:02:59;;;;;;;13.18;7.82;;;;;;;5.08;100.00;102225.41;4956494;28;20047;-79
2023/10/16 04:05:30;;;;;;;10.73;7.60;;;;;;;5.09;100.00;102214.06;4977250;28;20585;-78
2023/10/16 04:07:57;;;;;;;16.98;7.97;;;;;;;5.13;100.00;102212.41;4968916;28;20610;-79
2023/10/16 04:10:28;;;;;;;11.48;8.13;;;;;;;5.16;100.00;102204.56;4971886;28;20090;-79
2023/10/16 04:12:57;;;;;;;13.32;7.82;;;;;;;5.20;100.00;102209.00;4968655;28;20046;-79
2023/10/16 04:15:59;;;;;;;12.80;7.93;;;;;;;5.26;100.00;102208.22;4968774;28;20073;-80
2023/10/16 04:20:56;;;;;;;17.05;7.95;;;;;;;5.37;100.00;102210.97;4967809;28;20082;-80
2023/10/16 04:23:29;;;;;;;12.95;7.55;;;;;;;5.41;100.00;102207.53;4965756;28;20038;-79
2023/10/16 04:34:31;;;;;;;11.63;7.05;;;;;;;5.31;100.00;102189.97;4959636;28;20130;-78
2023/10/16 04:42:50;;;;;;;14.40;8.05;;;;;;;5.23;100.00;102172.44;4963494;28;20057;-75
2023/10/16 04:45:24;;;;;;;14.93;8.35;;;;;;;5.26;100.00;102174.22;4960237;28;20512;-77
2023/10/16 04:48:23;;;;;;;13.02;7.68;;;;;;;5.27;100.00;102170.75;4964065;28;20047;-74
2023/10/16 04:51:09;;;;;;;18.25;7.78;;;;;;;5.31;100.00;102162.06;4960492;28;20071;-75
2023/10/16 04:53:59;;;;;;;;;;;;;;;5.32;100.00;102158.59;4962067;28;20169;-74
2023/10/16 04:59:59;;;;;;;12.98;7.38;;;;;;;5.41;100.00;102156.09;5000317;28;20044;-74
2023/10/16 05:02:33;;;;;;;19.85;8.35;;;;;;;5.48;100.00;102157.03;4971223;28;20054;-74
2023/10/16 05:07:53;;;;;;;13.98;7.78;;;;;;;5.52;100.00;102171.94;4963528;28;20038;-75
2023/10/16 05:13:37;;;;;;;13.48;8.48;;;;;;;5.59;100.00;102165.03;4962476;28;20347;-74
2023/10/16 06:14:22;;;;;;;14.88;8.98;;;;;;;6.13;100.00;102165.63;4967820;28;20074;-76
2023/10/16 06:16:54;;;;;;;15.68;8.93;;;;;;;6.12;100.00;102171.72;4966667;28;20043;-75
2023/10/16 06:19:24;;;;;;;18.30;9.27;;;;;;;6.12;100.00;102165.59;4956435;28;20415;-75
2023/10/16 06:22:06;;;;;;;20.02;9.50;;;;;;;6.09;100.00;102163.84;4964085;28;20129;-76
2023/10/16 06:24:35;;;;;;;17.98;9.93;;;;;;;6.10;100.00;102170.84;4963966;28;20109;-75
2023/10/16 06:27:20;;;;;;;13.35;8.77;;;;;;;6.13;100.00;102164.72;4963916;28;20102;-75
2023/10/16 06:29:53;;;;;;;15.45;8.98;;;;;;;6.14;100.00;102170.00;4959779;28;20913;-76
2023/10/16 06:32:22;;;;;;;20.58;9.80;;;;;;;6.14;100.00;102177.88;4962890;28;20035;-75
2023/10/16 06:34:57;;;;;;;19.23;9.30;;;;;;;6.16;100.00;102172.63;4963255;28;20039;-75
2023/10/16 06:37:28;;;;;;;15.70;9.77;;;;;;;6.15;100.00;102173.50;4969065;28;20043;-76
2023/10/16 06:39:58;;;;;;;14.70;9.65;;;;;;;6.16;100.00;102170.00;4963089;28;20412;-75
2023/10/16 06:42:30;;;;;;;16.52;9.75;;;;;;;6.17;100.00;102171.78;4966110;28;20043;-75
2023/10/16 06:45:19;;;;;;;12.98;9.43;;;;;;;6.19;100.00;102173.53;4966456;28;20511;-76
2023/10/16 06:47:49;;;;;;;15.85;9.60;;;;;;;6.21;100.00;102178.78;4962351;28;20043;-75
2023/10/16 06:52:56;;;;;;;15.57;9.75;;;;;;;6.29;100.00;102176.22;4966852;28;20058;-75
2023/10/16 06:55:23;;;;;;;16.15;10.18;;;;;;;6.31;100.00;102182.38;4969736;28;20054;-76
2023/10/16 06:57:50;;;;;;;17.52;9.95;;;;;;;6.34;100.00;102177.16;4969781;28;20523;-76
2023/10/16 07:00:32;;;;;;;18.05;10.73;;;;;;;6.39;100.00;102175.44;4969555;28;20055;-75
2023/10/16 07:03:09;;;;;;;19.15;10.73;;;;;;;6.42;100.00;102180.72;4966392;28;20503;-75
2023/10/16 07:05:43;;;;;;;17.90;10.07;;;;;;;6.47;100.00;102178.13;4963318;28;20795;-75
2023/10/16 07:08:16;;;;;;;16.08;9.90;;;;;;;6.53;100.00;102180.78;4970752;28;20488;-74
2023/10/16 07:10:51;;;;;;;12.37;9.63;;;;;;;6.55;100.00;102176.44;4969304;28;20043;-75
2023/10/16 07:13:34;;;;;;;18.98;10.60;;;;;;;6.59;100.00;102175.63;4968541;28;20038;-75
2023/10/16 07:16:05;;;;;;;14.88;10.43;;;;;;;6.64;100.00;102179.13;4950517;28;20066;-75
2023/10/16 07:18:33;;;;;;;15.20;10.18;;;;;;;6.68;100.00;102183.56;4950777;28;20135;-74
2023/10/16 07:23:35;;;;;;;18.75;10.45;;;;;;;6.81;100.00;102181.88;4967036;28;20043;-74
2023/10/16 07:26:06;;;;;;;17.73;11.10;;;;;;;6.89;100.00;102174.09;4963279;28;20456;-75
2023/10/16 07:28:34;;;;;;;17.20;10.20;;;;;;;6.95;100.00;102176.72;4964658;28;20490;-75
2023/10/16 07:31:02;;;;;;;14.45;9.95;;;;;;;6.99;100.00;102178.50;4966401;28;20039;-76
2023/10/16 07:33:31;;;;;;;19.13;10.18;;;;;;;7.02;100.00;102182.91;4965855;28;20038;-76
2023/10/16 07:35:59;;;;;;;16.85;10.15;;;;;;;7.08;100.00;102182.91;4964509;28;20039;-77
2023/10/16 07:38:29;;;;;;;14.43;10.20;;;;;;;7.15;100.00;102186.47;4966177;28;20043;-76
2023/10/16 07:40:59;;;;;;;17.55;9.85;;;;;;;7.23;100.00;102190.00;4964633;28;20126;-77
2023/10/16 07:43:33;;;;;;;15.10;10.00;;;;;;;7.30;100.00;102183.03;4957713;28;20044;-76
2023/10/16 07:48:51;;;;;;;13.95;9.38;;;;;;;7.47;100.00;102183.13;4965286;28;20057;-76
2023/10/16 07:51:21;;;;;;;13.10;9.95;;;;;;;7.55;100.00;102186.63;4966861;28;20043;-76
2023/10/16 07:53:49;;;;;;;11.57;9.40;;;;;;;7.66;100.00;102185.81;4962569;28;20052;-75
2023/10/16 07:56:19;;;;;;;18.40;10.10;;;;;;;7.73;100.00;102179.72;4962097;28;20113;-76
2023/10/16 07:58:48;;;;;;;14.45;9.10;;;;;;;7.85;100.00;102176.25;4953973;28;20514;-76
2023/10/16 08:03:48;;;;;;;16.08;9.68;;;;;;;8.04;100.00;102180.66;4966430;28;20057;-76
2023/10/16 08:06:23;;;;;;;12.73;9.30;;;;;;;8.10;100.00;102185.06;4957703;28;20057;-76
2023/10/16 08:11:42;;;;;;;13.73;9.40;;;;;;;8.15;100.00;102183.28;4958392;28;20454;-76
2023/10/16 08:14:10;;;;;;;14.25;9.35;;;;;;;8.17;100.00;102180.69;4966559;28;20038;-76
2023/10/16 08:16:38;;;;;;;14.77;9.40;;;;;;;8.24;100.00;102175.41;4969284;28;20109;-76
2023/10/16 08:19:24;;;;;;;16.00;10.10;;;;;;;8.31;100.00;102181.56;4959796;28;20050;-76
2023/10/16 08:21:56;;;;;;;17.35;9.60;;;;;;;8.40;100.00;102178.94;4955591;28;20042;-76
2023/10/16 08:24:28;;;;;;;13.35;8.45;;;;;;;8.51;100.00;102175.47;4966699;28;20137;-76
2023/10/16 08:27:11;;;;;;;10.00;8.57;;;;;;;8.60;100.00;102178.06;4953764;28;20034;-76
2023/10/16 08:29:50;;;;;;;13.65;8.32;;;;;;;8.79;100.00;102183.34;4958305;28;20050;-75
2023/10/16 08:35:09;;;;;;;10.93;8.00;;;;;;;9.07;100.00;102178.88;4973564;28;20050;-76
2023/10/16 08:37:41;;;;;;;10.20;7.90;;;;;;;9.19;100.00;102183.25;4988602;28;20056;-75
2023/10/16 08:40:23;;;;;;;11.52;7.38;;;;;;;9.28;100.00;102183.22;4967361;28;20043;-76
2023/10/16 08:43:09;;;;;;;10.20;7.38;;;;;;;9.34;100.00;102179.69;4967329;28;20062;-76
2023/10/16 08:45:47;;;;;;;14.48;8.45;;;;;;;9.42;100.00;102180.53;4962348;28;20070;-76
2023/10/16 08:48:21;;;;;;;11.20;7.80;;;;;;;9.52;100.00;102180.50;4954357;28;20443;-76
2023/10/16 08:50:52;;;;;;;10.85;8.30;;;;;;;9.59;99.48;102177.81;4967908;28;20054;-77
2023/10/16 08:53:32;;;;;;;15.18;7.20;;;;;;;9.66;99.29;102183.06;4969352;28;20062;-76
2023/10/16 08:56:09;;;;;;;22.90;7.93;;;;;;;9.74;98.29;102184.78;4967142;28;20145;-75
2023/10/16 08:58:44;;;;;;;12.05;6.55;;;;;;;9.83;98.25;102183.81;4970848;28;20051;-74
2023/10/16 09:01:16;;;;;;;14.68;7.10;;;;;;;9.92;98.59;102188.19;4958874;28;20034;-74
2023/10/16 09:04:02;;;;;;;16.95;7.53;;;;;;;10.05;98.67;102181.97;4964120;28;20065;-75
2023/10/16 09:06:37;;;;;;;10.45;5.60;;;;;;;10.16;97.25;102186.28;4964818;28;20073;-75
2023/10/16 09:09:13;;;;;;;13.07;5.40;;;;;;;10.21;96.52;102190.63;4967260;28;20041;-75
2023/10/16 09:11:45;;;;;;;11.27;5.78;;;;;;;10.31;95.74;102188.78;4966576;28;20090;-76
2023/10/16 09:14:17;;;;;;;14.77;5.65;;;;;;;10.41;95.66;102193.13;4967330;28;20046;-75
2023/10/16 09:16:51;;;;;;;11.88;5.70;;;;;;;10.52;96.10;102181.63;4968006;28;20189;-76
2023/10/16 09:19:20;;;;;;;;;;;;;;;10.66;96.48;102181.50;4967941;28;20503;-76
2023/10/16 09:21:52;;;;;;;8.13;4.68;;;;;;;10.76;95.25;102187.56;4966176;28;19980;-76
2023/10/16 09:24:20;;;;;;;8.70;4.00;;;;;;;10.83;93.62;102184.88;4968597;28;20066;-76
2023/10/16 09:26:54;;;;;;;6.78;4.43;;;;;;;10.94;93.60;102181.22;4969343;28;20140;-76
2023/10/16 09:29:27;;;;;;;10.30;4.18;;;;;;;11.07;93.90;102189.91;4973371;28;20058;-76
2023/10/16 09:31:54;;;;;;;5.85;4.18;;;;;;;11.17;92.07;102178.34;4966674;28;20043;-77
2023/10/16 09:34:25;;;;;;;10.25;4.05;;;;;;;11.24;91.88;102182.66;4965824;28;20050;-76
2023/10/16 09:39:40;;;;;;;10.73;4.20;;;;;;;11.42;92.75;102176.28;4966679;28;20047;-76
2023/10/16 09:42:14;;;;;;;9.25;3.97;;;;;;;11.55;92.29;102182.28;4967453;28;20046;-76
2023/10/16 09:47:35;;;;;;;4.90;3.40;;;;;;;11.80;91.09;102185.47;4968107;28;20051;-77
2023/10/16 09:50:16;;;;;;;6.88;3.78;;;;;;;11.79;90.37;102185.50;4965956;28;20121;-76
2023/10/16 09:52:46;;;;;;;8.30;4.03;;;;;;;11.86;89.97;102189.78;4961255;28;20129;-73
2023/10/16 09:55:15;;;;;;;7.10;3.65;;;;;;;11.95;90.74;102186.16;4965877;28;20053;-75
2023/10/16 09:57:54;;;;;;;6.28;3.50;;;;;;;12.01;89.54;102191.38;4966688;28;20794;-75
2023/10/16 10:00:29;;;;;;;6.30;3.90;;;;;;;12.05;88.31;102189.56;4966495;28;20038;-74
2023/10/16 10:03:05;;;;;;;5.72;3.33;;;;;;;12.10;86.77;102193.88;4947757;28;20055;-75
2023/10/16 10:05:55;;;;;;;6.45;3.17;;;;;;;12.17;86.26;102185.84;4961556;28;20129;-75
2023/10/16 10:08:42;;;;;;;5.88;3.10;;;;;;;12.25;87.44;102192.75;4970170;28;20039;-74
2023/10/16 10:11:17;;;;;;;7.57;3.67;;;;;;;12.36;87.37;102197.00;4971404;28;20118;-74
2023/10/16 10:16:51;;;;;;;6.60;3.30;;;;;;;12.49;86.53;102195.03;4961857;28;20078;-76
2023/10/16 10:19:31;;;;;;;7.32;3.10;;;;;;;12.58;85.48;102190.47;4964966;28;20051;-74
2023/10/16 10:22:18;;;;;;;5.88;2.80;;;;;;;12.70;85.26;102191.16;4968366;28;20093;-74
2023/10/16 10:25:22;;;;;;;9.43;3.40;;;;;;;12.83;85.44;102189.16;4962173;28;20480;-76
2023/10/16 10:27:54;;;;;;;5.20;2.20;;;;;;;12.95;83.64;102186.28;4960690;28;20496;-75
2023/10/16 10:30:26;;;;;;;4.38;2.50;;;;;;;13.01;84.17;102178.22;4998698;28;20299;-77
2023/10/16 10:33:00;;;;;;;6.28;2.45;;;;;;;13.08;83.37;102176.31;4968776;28;20086;-76
2023/10/16 10:35:29;;;;;;;5.00;1.90;;;;;;;13.17;82.68;102181.44;4965600;28;20070;-76
2023/10/16 10:38:29;;;;;;;4.82;1.60;;;;;;;13.27;82.06;102176.84;4969440;28;20062;-75
2023/10/16 10:41:13;;;;;;;3.65;1.70;;;;;;;13.40;80.80;102171.31;4974083;28;20514;-75
2023/10/16 10:43:47;;;;;;;5.13;1.90;;;;;;;13.49;78.77;102165.81;4967306;28;20082;-75
2023/10/16 10:46:21;;;;;;;5.38;1.95;;;;;;;13.57;78.93;102166.53;4964319;28;20062;-70
2023/10/16 10:48:49;;;;;;;4.75;1.50;;;;;;;13.64;75.77;102160.19;4969160;28;20043;-70
2023/10/16 10:51:16;;;;;;;3.53;1.50;;;;;;;13.75;75.52;102161.72;4964222;28;20047;-71
2023/10/16 10:53:58;;;;;;;13.88;1.20;;;;;;;13.81;75.42;102149.22;4964060;28;20050;-71
2023/10/16 10:56:49;;;;;;;5.53;1.60;;;;;;;13.92;73.83;102159.56;4957362;28;20049;-70
2023/10/16 10:59:39;;;;;;;3.45;1.10;;;;;;;14.01;72.68;102157.59;4967406;28;20055;-70
2023/10/16 11:04:58;;;;;;;6.00;1.40;;;;;;;14.15;74.22;102144.88;4967651;28;20042;-70
2023/10/16 11:07:39;;;;;;;4.85;1.60;;;;;;;14.18;73.19;102146.56;4967756;28;20042;-70
2023/10/16 11:10:07;;;;;;;6.10;1.65;;;;;;;14.28;73.93;102141.03;4966595;28;20122;-70
2023/10/16 11:12:36;;;;;;;6.95;1.48;;;;;;;14.30;75.16;102138.31;4968310;28;20043;-71
2023/10/16 11:15:10;;;;;;;3.13;1.10;;;;;;;14.28;74.96;102140.13;4963493;28;20170;-70
2023/10/16 11:17:38;;;;;;;7.00;1.15;;;;;;;14.20;72.30;102136.81;4965050;28;20130;-71
2023/10/16 11:22:45;;;;;;;6.65;1.50;;;;;;;13.99;73.53;102128.47;4966440;28;20046;-70
2023/10/16 11:25:14;;;;;;;4.50;1.30;;;;;;;13.92;73.07;102129.53;4960052;28;20094;-70
2023/10/16 11:27:44;;;;;;;4.32;1.35;;;;;;;13.88;74.31;102127.84;4958352;28;20090;-71
2023/10/16 11:30:18;;;;;;;3.60;1.17;;;;;;;13.86;74.07;102125.25;4961789;28;20050;-70
2023/10/16 11:32:48;;;;;;;9.32;1.60;;;;;;;13.88;73.44;102118.13;4967477;28;20042;-70
2023/10/16 11:35:17;;;;;;;2.78;1.23;;;;;;;14.05;74.00;102122.16;4966318;28;20054;-69
2023/10/16 11:37:50;;;;;;;7.72;1.77;;;;;;;14.09;74.54;102121.19;4967755;28;20121;-69
2023/10/16 11:40:31;;;;;;;4.15;1.20;;;;;;;14.23;74.73;102112.88;4967906;28;20129;-69
2023/10/16 11:43:02;;;;;;;4.53;1.13;;;;;;;14.40;73.92;102109.75;4951145;28;20118;-70
2023/10/16 11:45:33;;;;;;;3.72;1.10;;;;;;;14.55;70.37;102111.16;4959767;28;20507;-70
2023/10/16 11:48:35;;;;;;;4.43;1.13;;;;;;;14.63;69.79;102109.16;4969565;28;20074;-70
2023/10/16 11:51:08;;;;;;;4.35;1.10;;;;;;;14.71;67.78;102106.31;4967902;28;20049;-69
2023/10/16 11:53:38;;;;;;;5.68;1.55;;;;;;;14.75;67.84;102103.53;4965784;28;20039;-70
2023/10/16 11:56:12;;;;;;;3.13;1.05;;;;;;;14.71;68.43;102104.56;4966689;28;20096;-70
2023/10/16 11:58:40;;;;;;;;;;;;;;;14.66;69.53;102102.91;4968165;28;20577;-70
2023/10/16 12:01:11;;;;;;;3.03;0.90;;;;;;;14.63;69.65;102095.91;4964868;28;19926;-70
2023/10/16 12:03:58;;;;;;;3.25;1.00;;;;;;;14.68;69.11;102101.97;4960577;28;20038;-69
2023/10/16 12:06:26;;;;;;;9.05;1.20;;;;;;;14.62;68.85;102103.88;4966918;28;20050;-71
2023/10/16 12:08:54;;;;;;;9.40;0.90;;;;;;;14.59;70.23;102099.53;4961042;28;20129;-71
2023/10/16 12:11:22;;;;;;;3.28;1.00;;;;;;;14.55;70.51;102093.44;4967185;28;20122;-70
2023/10/16 12:13:51;;;;;;;3.78;0.75;;;;;;;14.47;69.94;102095.44;4967154;28;20054;-70
2023/10/16 12:16:24;;;;;;;3.15;0.80;;;;;;;14.38;69.76;102090.38;4962380;28;20177;-68
2023/10/16 12:18:56;;;;;;;3.28;0.50;;;;;;;14.29;70.26;102091.50;4967308;28;20042;-75
2023/10/16 12:21:24;;;;;;;3.08;0.88;;;;;;;14.18;69.25;102086.47;4964937;28;20043;-73
2023/10/16 12:23:51;;;;;;;5.30;0.77;;;;;;;14.11;70.81;102087.50;4967483;28;20054;-73
2023/10/16 12:26:19;;;;;;;2.40;0.57;;;;;;;14.08;68.65;102085.81;4967008;28;20661;-73
2023/10/16 12:28:46;;;;;;;3.08;0.80;;;;;;;13.99;68.58;102083.41;4963348;28;20467;-73
2023/10/16 12:31:13;;;;;;;2.10;0.55;;;;;;;13.91;69.18;102075.63;4966577;28;20042;-73
2023/10/16 12:33:40;;;;;;;4.22;0.68;;;;;;;13.89;69.61;102076.59;4981399;28;20055;-73
2023/10/16 12:36:08;;;;;;;2.65;0.73;;;;;;;13.86;69.02;102072.25;4968365;28;20039;-73
2023/10/16 12:38:35;;;;;;;3.53;0.70;;;;;;;13.86;68.12;102074.00;4967489;28;20515;-73
2023/10/16 12:41:05;;;;;;;1.60;0.52;;;;;;;13.80;68.34;102067.06;4956461;28;20041;-73
2023/10/16 12:43:32;;;;;;;3.08;0.70;;;;;;;13.79;68.64;102065.31;4965249;28;20588;-73
2023/10/16 12:45:59;;;;;;;2.28;0.50;;;;;;;13.79;68.14;102070.63;4967469;28;20451;-73
2023/10/16 12:48:30;;;;;;;5.03;1.00;;;;;;;13.77;67.60;102064.50;4967574;28;20551;-74
2023/10/16 12:51:00;;;;;;;2.85;0.70;;;;;;;13.79;68.20;102068.88;4963305;28;20641;-73
2023/10/16 12:53:41;;;;;;;3.80;0.70;;;;;;;13.86;66.86;102066.03;4966540;28;20053;-75
2023/10/16 12:56:12;;;;;;;3.67;0.93;;;;;;;13.89;66.29;102065.97;4962910;28;20058;-75
2023/10/16 12:58:39;;;;;;;2.33;0.60;;;;;;;13.87;66.71;102060.72;4963362;28;20535;-74
2023/10/16 13:01:10;;;;;;;2.97;0.52;;;;;;;13.92;68.38;102053.53;4959121;28;20047;-74
2023/10/16 13:03:37;;;;;;;2.47;0.60;;;;;;;14.02;69.55;102058.59;4960536;28;20054;-75
2023/10/16 13:06:06;;;;;;;4.45;0.90;;;;;;;14.10;69.27;102053.94;4962040;28;20392;-75
2023/10/16 13:08:34;;;;;;;3.63;0.60;;;;;;;14.20;69.51;102059.91;4960744;28;20155;-76
2023/10/16 13:11:01;;;;;;;2.63;0.88;;;;;;;14.25;69.23;102057.97;4962354;28;20041;-75
2023/10/16 13:13:28;;;;;;;3.70;0.77;;;;;;;14.26;69.11;102050.00;4960992;28;20043;-77
2023/10/16 13:15:57;;;;;;;2.80;0.80;;;;;;;14.26;68.08;102054.41;4958931;28;20039;-76
2023/10/16 13:18:27;;;;;;;4.28;0.60;;;;;;;14.22;64.22;102051.00;4958921;28;20043;-75
2023/10/16 13:21:15;;;;;;;9.35;1.10;;;;;;;14.10;66.00;102046.00;4957634;28;20043;-77
2023/10/16 13:23:43;;;;;;;5.25;1.00;;;;;;;14.08;67.33;102051.34;4964536;28;20057;-77
2023/10/16 13:26:14;;;;;;;2.95;0.70;;;;;;;14.04;66.80;102051.47;4965169;28;20076;-75
2023/10/16 13:28:43;;;;;;;2.67;0.60;;;;;;;13.98;66.98;102055.16;4957368;28;20043;-76
2023/10/16 13:31:10;;;;;;;3.88;0.80;;;;;;;13.92;68.49;102048.22;4962708;28;20050;-77
2023/10/16 13:33:41;;;;;;;2.17;0.70;;;;;;;13.91;67.79;102045.63;4964546;28;20570;-76
2023/10/16 13:36:11;;;;;;;1.88;0.60;;;;;;;13.82;67.51;102049.34;4960509;28;20141;-75
2023/10/16 13:38:39;;;;;;;3.03;0.57;;;;;;;13.74;66.16;102052.19;4968224;28;20050;-77
2023/10/16 13:41:18;;;;;;;3.20;0.57;;;;;;;13.62;66.91;102045.41;4968617;28;20085;-77
2023/10/16 13:43:46;;;;;;;1.25;0.50;;;;;;;13.54;67.20;102041.19;4970042;28;20038;-76